Time;durP1;ratioP1;P1;durP2;ratioP2;P2;SDS_P1;SDS_P2;PMS_P1;PMS_P2;Temp;Humidity;BMP_temperature;BMP_pressure;BME280_temperature;BME280_humidity;BME280_pressure;Samples;Min_cycle;Max_cycle;Signal;HPM_P1;HPM_P2
2023/10/17 00:00:46;;;;;;;1.70;1.20;;;15.20;57.40;;;;;;5028732;28;20499;-59
2023/10/17 00:03:06;;;;;;;2.77;1.00;;;15.20;57.70;;;;;;5027265;28;20237;-59
2023/10/17 00:05:33;;;;;;;7.30;1.80;;;15.20;57.80;;;;;;5011678;28;20207;-59
2023/10/17 00:08:03;;;;;;;2.43;1.60;;;15.20;57.70;;;;;;5024863;28;20194;-59
2023/10/17 00:10:35;;;;;;;6.33;1.40;;;15.20;57.90;;;;;;5027936;28;20321;-58
2023/10/17 00:15:47;;;;;;;2.10;1.40;;;15.20;57.30;;;;;;5007941;28;20207;-58
2023/10/17 00:18:17;;;;;;;2.00;1.30;;;15.20;57.10;;;;;;5026867;28;20701;-59
2023/10/17 00:20:44;;;;;;;3.57;1.20;;;15.10;57.20;;;;;;5022444;28;20216;-59
2023/10/17 00:23:15;;;;;;;5.97;2.00;;;15.10;57.30;;;;;;5026273;28;20202;-59
2023/10/17 00:25:45;;;;;;;2.70;1.30;;;15.10;57.40;;;;;;5025005;28;20286;-58
2023/10/17 00:28:15;;;;;;;4.43;1.77;;;15.10;57.60;;;;;;5022004;28;20199;-59
2023/10/17 00:30:42;;;;;;;6.73;1.93;;;15.10;57.80;;;;;;5013442;28;20207;-59
2023/10/17 00:33:12;;;;;;;2.97;1.43;;;15.10;57.90;;;;;;5016318;28;20206;-59
2023/10/17 00:35:48;;;;;;;7.00;1.90;;;15.10;58.10;;;;;;5010300;28;21032;-59
2023/10/17 00:38:16;;;;;;;8.80;1.60;;;15.10;58.20;;;;;;5009918;28;20207;-59
2023/10/17 00:40:51;;;;;;;4.83;1.73;;;15.10;58.20;;;;;;5025293;28;20219;-59
2023/10/17 00:43:19;;;;;;;4.63;1.70;;;15.10;58.30;;;;;;5024325;28;20200;-59
2023/10/17 00:45:47;;;;;;;4.27;1.80;;;15.10;58.30;;;;;;5024862;28;20229;-59
2023/10/17 00:48:22;;;;;;;2.30;1.60;;;15.10;58.60;;;;;;5014462;28;20206;-59
2023/10/17 00:51:01;;;;;;;11.77;3.93;;;15.10;58.60;;;;;;5023106;28;20301;-59
2023/10/17 00:53:28;;;;;;;5.67;2.40;;;15.10;58.30;;;;;;5023764;28;20277;-59
2023/10/17 00:55:57;;;;;;;5.77;2.30;;;15.10;58.20;;;;;;5010852;28;20204;-59
2023/10/17 00:58:27;;;;;;;6.80;2.03;;;15.10;58.20;;;;;;5028450;28;20256;-59
2023/10/17 01:00:59;;;;;;;5.73;1.73;;;15.00;58.00;;;;;;5004089;28;20664;-59
2023/10/17 01:03:29;;;;;;;7.07;2.30;;;15.00;58.10;;;;;;5012666;28;20294;-58
2023/10/17 01:05:57;;;;;;;2.93;1.97;;;15.00;58.20;;;;;;5021711;28;20583;-58
2023/10/17 01:08:39;;;;;;;5.70;1.90;;;15.00;58.40;;;;;;5029307;28;20252;-58
2023/10/17 01:11:16;;;;;;;9.43;2.30;;;15.00;58.60;;;;;;5027723;28;20209;-58
2023/10/17 01:13:47;;;;;;;5.70;1.73;;;15.00;58.60;;;;;;5021841;28;20327;-59
2023/10/17 01:16:16;;;;;;;3.87;2.00;;;14.90;58.50;;;;;;5025969;28;20199;-61
2023/10/17 01:18:46;;;;;;;3.40;1.90;;;14.90;58.70;;;;;;5011422;28;20611;-61
2023/10/17 01:21:18;;;;;;;3.83;2.17;;;14.90;58.80;;;;;;5007724;28;20223;-61
2023/10/17 01:23:52;;;;;;;4.50;1.80;;;14.90;58.80;;;;;;5024006;28;20196;-59
2023/10/17 01:26:21;;;;;;;6.43;2.73;;;14.90;59.10;;;;;;5019880;28;20629;-59
2023/10/17 01:28:53;;;;;;;5.83;2.30;;;14.90;59.20;;;;;;5026355;28;20214;-59
2023/10/17 01:31:24;;;;;;;3.43;1.60;;;14.90;59.30;;;;;;5013377;28;20330;-58
2023/10/17 01:33:54;;;;;;;3.87;2.30;;;14.80;59.50;;;;;;5014748;28;20272;-58
2023/10/17 01:36:22;;;;;;;3.43;2.13;;;14.90;59.80;;;;;;5027506;28;20290;-58
2023/10/17 01:38:49;;;;;;;3.40;2.23;;;14.90;60.10;;;;;;5006707;28;20226;-59
2023/10/17 01:41:20;;;;;;;6.27;2.60;;;14.90;60.50;;;;;;5006403;28;20321;-59
2023/10/17 01:43:49;;;;;;;7.97;2.40;;;14.90;60.30;;;;;;5015512;28;20195;-58
2023/10/17 01:46:21;;;;;;;9.43;2.43;;;14.80;60.00;;;;;;5006501;28;20207;-59
2023/10/17 01:48:54;;;;;;;4.63;2.17;;;14.80;59.80;;;;;;5007674;28;20209;-59
2023/10/17 01:51:24;;;;;;;3.50;2.30;;;14.80;59.80;;;;;;5023186;28;20206;-59
2023/10/17 01:53:51;;;;;;;4.87;2.40;;;14.90;60.00;;;;;;5012549;28;20200;-59
2023/10/17 01:56:26;;;;;;;5.23;1.93;;;14.80;60.30;;;;;;5013430;28;20235;-59
2023/10/17 01:59:09;;;;;;;2.10;1.80;;;14.90;61.00;;;;;;5028450;28;20201;-59
2023/10/17 02:01:40;;;;;;;3.60;2.07;;;14.80;61.50;;;;;;5013743;28;20288;-59
2023/10/17 02:04:13;;;;;;;4.13;2.60;;;14.80;61.90;;;;;;5026469;28;20202;-59
2023/10/17 02:06:40;;;;;;;3.83;2.27;;;14.80;62.30;;;;;;5025619;28;20536;-59
2023/10/17 02:09:22;;;;;;;6.53;2.83;;;14.80;62.60;;;;;;5023429;28;20530;-59
2023/10/17 02:11:56;;;;;;;8.20;2.73;;;14.80;62.60;;;;;;5004702;28;20666;-59
2023/10/17 02:14:23;;;;;;;3.90;2.37;;;14.80;62.00;;;;;;4982207;28;20719;-59
2023/10/17 02:16:51;;;;;;;5.63;2.17;;;14.80;61.80;;;;;;4986507;28;20267;-58
2023/10/17 02:19:21;;;;;;;7.73;2.73;;;14.80;61.70;;;;;;4986497;28;20216;-58
2023/10/17 02:21:52;;;;;;;8.13;2.10;;;14.70;61.50;;;;;;4983255;28;20220;-59
2023/10/17 02:24:19;;;;;;;5.33;2.23;;;14.70;61.60;;;;;;4984780;28;20267;-58
2023/10/17 02:26:56;;;;;;;5.50;2.23;;;14.70;62.10;;;;;;4997407;28;20620;-58
2023/10/17 02:29:39;;;;;;;5.40;2.67;;;14.70;62.40;;;;;;4981751;28;20209;-59
2023/10/17 02:32:12;;;;;;;2.40;1.90;;;14.70;62.30;;;;;;4985433;28;20208;-60
2023/10/17 02:34:43;;;;;;;7.37;2.40;;;14.70;62.60;;;;;;4984514;28;20202;-59
2023/10/17 02:37:11;;;;;;;5.77;2.20;;;14.70;63.40;;;;;;4980892;28;20193;-59
2023/10/17 02:39:38;;;;;;;15.47;2.83;;;14.70;63.90;;;;;;4986253;28;20213;-59
2023/10/17 02:42:09;;;;;;;3.33;1.90;;;14.70;64.00;;;;;;4986935;28;20350;-59
2023/10/17 02:44:43;;;;;;;4.90;2.50;;;14.70;64.10;;;;;;4984721;28;20203;-59
2023/10/17 02:47:11;;;;;;;4.33;2.23;;;14.70;64.30;;;;;;4980969;28;20210;-59
2023/10/17 02:49:43;;;;;;;3.83;2.57;;;14.70;64.20;;;;;;4985209;28;20685;-58
2023/10/17 02:52:14;;;;;;;4.87;2.57;;;14.70;64.00;;;;;;4999640;28;20205;-58
2023/10/17 02:54:56;;;;;;;4.93;2.80;;;14.70;64.00;;;;;;4984172;28;20212;-58
2023/10/17 02:57:27;;;;;;;7.13;2.57;;;14.70;64.30;;;;;;4986801;28;20560;-59
2023/10/17 02:59:57;;;;;;;4.73;2.37;;;14.70;64.40;;;;;;4983534;28;20197;-59
2023/10/17 03:02:36;;;;;;;6.23;2.50;;;14.60;64.20;;;;;;4990128;28;20207;-60
2023/10/17 03:05:11;;;;;;;7.80;2.33;;;14.60;64.10;;;;;;4983747;28;20206;-59
2023/10/17 03:07:39;;;;;;;3.60;2.40;;;14.60;63.80;;;;;;4983634;28;20625;-59
2023/10/17 03:10:06;;;;;;;7.00;2.63;;;14.60;63.60;;;;;;4989991;28;20235;-58
2023/10/17 03:12:40;;;;;;;4.90;2.83;;;14.50;63.70;;;;;;4983026;28;20571;-59
2023/10/17 03:17:41;;;;;;;5.00;1.83;;;14.50;63.60;;;;;;5028340;28;20241;-59
2023/10/17 03:20:12;;;;;;;8.53;2.73;;;14.50;63.80;;;;;;5016779;28;20257;-59
2023/10/17 03:22:41;;;;;;;3.87;1.93;;;14.50;63.80;;;;;;5011871;28;20658;-59
2023/10/17 03:25:26;;;;;;;3.47;2.13;;;14.50;64.10;;;;;;5016767;28;20704;-59
2023/10/17 03:27:55;;;;;;;5.17;2.43;;;14.50;64.20;;;;;;5010942;28;20203;-59
2023/10/17 03:30:23;;;;;;;4.13;2.43;;;14.50;64.00;;;;;;5009172;28;20644;-59
2023/10/17 03:32:58;;;;;;;6.97;2.97;;;14.50;63.90;;;;;;5025907;28;20280;-59
2023/10/17 03:35:27;;;;;;;6.03;2.60;;;14.40;63.90;;;;;;5012611;28;20217;-59
2023/10/17 03:37:57;;;;;;;3.77;2.40;;;14.40;63.80;;;;;;5018404;28;20231;-59
2023/10/17 03:40:40;;;;;;;3.53;2.37;;;14.40;63.80;;;;;;5024799;28;20242;-59
2023/10/17 03:43:12;;;;;;;6.70;2.33;;;14.40;63.80;;;;;;5027140;28;20218;-59
2023/10/17 03:45:52;;;;;;;4.03;2.27;;;14.40;64.00;;;;;;5025814;28;20508;-58
2023/10/17 03:48:28;;;;;;;7.10;2.47;;;14.30;64.20;;;;;;5028649;28;20210;-59
2023/10/17 03:53:46;;;;;;;4.83;2.60;;;14.20;64.60;;;;;;5029407;28;20254;-58
2023/10/17 03:56:23;;;;;;;3.77;2.43;;;14.20;64.80;;;;;;5027413;28;20204;-59
2023/10/17 03:58:57;;;;;;;9.13;2.67;;;14.20;65.00;;;;;;5015484;28;20206;-59
2023/10/17 04:01:26;;;;;;;3.00;2.40;;;14.20;65.20;;;;;;5029023;28;20240;-59
2023/10/17 04:03:56;;;;;;;3.87;2.77;;;14.20;65.30;;;;;;5024754;28;20569;-58
2023/10/17 04:06:36;;;;;;;4.23;2.67;;;14.20;65.30;;;;;;5024292;28;20203;-58
2023/10/17 04:09:21;;;;;;;5.17;2.27;;;14.20;65.30;;;;;;5025015;28;20207;-58
2023/10/17 04:11:49;;;;;;;5.50;2.70;;;14.10;65.20;;;;;;5021741;28;20225;-59
2023/10/17 04:14:25;;;;;;;7.00;2.50;;;14.00;65.10;;;;;;5028119;28;20564;-59
2023/10/17 04:16:52;;;;;;;5.30;2.73;;;14.00;65.30;;;;;;5024199;28;20213;-59
2023/10/17 04:19:24;;;;;;;6.00;3.17;;;14.00;65.50;;;;;;5023794;28;20203;-60
2023/10/17 04:24:36;;;;;;;3.77;2.43;;;13.90;66.00;;;;;;5019632;28;20225;-58
2023/10/17 04:27:17;;;;;;;5.83;2.57;;;13.90;66.20;;;;;;5012291;28;20207;-58
2023/10/17 04:29:50;;;;;;;3.70;2.30;;;13.90;66.30;;;;;;5024652;28;20212;-59
2023/10/17 04:32:19;;;;;;;5.53;2.50;;;14.00;66.40;;;;;;5029232;28;20643;-58
2023/10/17 04:34:52;;;;;;;2.87;2.40;;;14.00;66.40;;;;;;5021059;28;20212;-62
2023/10/17 04:37:31;;;;;;;4.47;2.60;;;14.00;66.40;;;;;;5027222;28;20224;-61
2023/10/17 04:45:23;;;;;;;6.03;2.53;;;14.00;66.70;;;;;;5026575;28;20782;-60
2023/10/17 04:48:11;;;;;;;6.03;2.40;;;14.00;66.90;;;;;;5022456;28;20192;-61
2023/10/17 04:50:55;;;;;;;6.23;3.13;;;14.00;67.00;;;;;;5014921;28;20202;-62
2023/10/17 04:53:35;;;;;;;7.73;2.70;;;14.00;67.00;;;;;;5024614;28;20210;-59
2023/10/17 04:56:24;;;;;;;4.43;2.63;;;14.00;66.90;;;;;;5025780;28;20249;-58
2023/10/17 04:58:56;;;;;;;3.70;2.50;;;14.00;67.00;;;;;;5025860;28;20514;-59
2023/10/17 05:01:41;;;;;;;10.40;2.50;;;14.00;67.10;;;;;;5020997;28;20277;-59
2023/10/17 06:16:49;;;;;;;4.43;2.30;;;13.90;67.30;;;;;;5025082;28;20191;-58
2023/10/17 06:19:18;;;;;;;3.60;2.30;;;13.80;68.70;;;;;;5020611;28;20657;-59
2023/10/17 06:34:47;;;;;;;5.00;2.33;;;13.80;68.10;;;;;;5025607;28;20670;-59
2023/10/17 06:37:20;;;;;;;5.53;2.10;;;13.90;68.00;;;;;;5028248;28;20241;-60
2023/10/17 06:39:47;;;;;;;3.50;1.87;;;13.90;67.70;;;;;;5019056;28;20196;-59
2023/10/17 06:42:28;;;;;;;6.30;1.80;;;13.90;67.30;;;;;;5024745;28;20259;-60
2023/10/17 06:45:01;;;;;;;3.40;2.17;;;13.90;67.10;;;;;;5025790;28;20209;-59
2023/10/17 06:47:31;;;;;;;4.53;2.00;;;13.90;66.90;;;;;;5023539;28;20629;-59
2023/10/17 06:55:38;;;;;;;2.83;1.90;;;13.90;67.10;;;;;;5015857;28;20315;-59
2023/10/17 06:58:09;;;;;;;5.53;1.83;;;14.00;67.30;;;;;;5028839;28;20204;-60
2023/10/17 07:00:50;;;;;;;4.80;2.40;;;14.00;67.30;;;;;;5026534;28;20597;-60
2023/10/17 07:03:25;;;;;;;7.33;2.47;;;14.00;66.90;;;;;;5028474;28;20222;-59
2023/10/17 07:06:11;;;;;;;5.10;1.83;;;14.10;66.80;;;;;;5027264;28;20231;-60
2023/10/17 07:08:46;;;;;;;2.60;1.90;;;14.10;66.20;;;;;;5028672;28;20300;-59
2023/10/17 07:13:59;;;;;;;3.00;2.27;;;14.10;66.20;;;;;;5022189;28;20242;-59
2023/10/17 07:16:27;;;;;;;2.73;1.57;;;14.20;66.30;;;;;;5023895;28;21474;-59
2023/10/17 07:19:09;;;;;;;4.13;1.80;;;14.20;66.20;;;;;;5027276;28;20222;-60
2023/10/17 07:24:33;;;;;;;1.70;1.50;;;14.30;66.00;;;;;;5026899;28;20280;-60
2023/10/17 07:27:11;;;;;;;3.27;1.43;;;14.40;65.70;;;;;;5027201;28;20200;-59
2023/10/17 07:29:45;;;;;;;4.60;1.90;;;14.40;65.10;;;;;;5027379;28;20546;-59
2023/10/17 07:32:16;;;;;;;4.30;1.90;;;14.40;65.00;;;;;;5026409;28;20651;-59
2023/10/17 07:34:44;;;;;;;4.03;2.10;;;14.40;65.00;;;;;;5026281;28;20211;-60
2023/10/17 07:42:42;;;;;;;3.50;1.50;;;14.60;64.80;;;;;;5025076;28;20293;-60
2023/10/17 07:45:15;;;;;;;3.07;1.87;;;14.60;64.50;;;;;;5028201;28;20506;-60
2023/10/17 07:47:51;;;;;;;3.80;1.77;;;14.60;64.90;;;;;;5027773;28;20216;-59
2023/10/17 07:50:26;;;;;;;6.00;2.20;;;14.70;65.20;;;;;;5010747;28;20678;-59
2023/10/17 07:52:59;;;;;;;4.47;2.10;;;14.70;64.80;;;;;;5025756;28;20635;-60
2023/10/17 07:58:06;;;;;;;3.30;1.97;;;14.90;63.90;;;;;;5025816;28;20535;-60
2023/10/17 08:00:33;;;;;;;4.40;2.03;;;14.90;63.80;;;;;;5023224;28;20556;-59
2023/10/17 08:03:14;;;;;;;10.13;2.03;;;14.90;63.20;;;;;;5029673;28;20211;-59
2023/10/17 08:05:54;;;;;;;3.63;2.13;;;15.00;63.30;;;;;;5024332;28;20208;-59
2023/10/17 08:08:23;;;;;;;7.47;2.03;;;15.00;63.30;;;;;;5027281;28;20202;-60
2023/10/17 08:10:58;;;;;;;2.97;1.30;;;15.00;62.90;;;;;;5027801;28;20199;-60
2023/10/17 08:13:28;;;;;;;4.40;1.67;;;15.00;62.90;;;;;;5024138;28;20622;-59
2023/10/17 08:16:11;;;;;;;3.27;1.50;;;15.10;62.90;;;;;;5026879;28;20269;-60
2023/10/17 08:18:41;;;;;;;5.47;1.73;;;15.10;62.80;;;;;;5023326;28;20682;-60
2023/10/17 08:24:00;;;;;;;4.80;2.27;;;15.20;62.00;;;;;;5022729;28;20520;-59
2023/10/17 08:26:33;;;;;;;9.53;2.13;;;15.30;62.00;;;;;;5027965;28;20715;-59
2023/10/17 08:29:00;;;;;;;6.33;1.47;;;15.40;61.80;;;;;;5009287;28;20294;-60
2023/10/17 08:31:35;;;;;;;2.37;1.97;;;15.40;61.40;;;;;;5010907;28;20210;-60
2023/10/17 08:36:53;;;;;;;4.63;1.87;;;15.50;61.80;;;;;;5026055;28;20199;-59
2023/10/17 08:41:57;;;;;;;2.97;1.40;;;15.70;60.90;;;;;;5025666;28;20219;-59
2023/10/17 08:44:29;;;;;;;3.83;1.30;;;15.80;60.50;;;;;;5024333;28;20253;-59
2023/10/17 08:46:57;;;;;;;7.23;1.33;;;15.90;60.60;;;;;;5029821;28;20257;-60
2023/10/17 08:49:27;;;;;;;4.57;1.40;;;15.90;60.80;;;;;;5023303;28;20268;-60
2023/10/17 08:51:57;;;;;;;1.80;1.10;;;16.00;60.60;;;;;;5028377;28;20206;-60
2023/10/17 08:54:28;;;;;;;5.23;1.40;;;16.10;60.30;;;;;;5024067;28;20195;-60
2023/10/17 08:57:00;;;;;;;2.27;1.37;;;16.20;59.60;;;;;;5025199;28;20223;-60
2023/10/17 09:02:48;;;;;;;1.80;1.30;;;16.30;59.70;;;;;;5021901;28;20546;-60
2023/10/17 09:05:25;;;;;;;6.60;1.53;;;16.40;58.80;;;;;;5024156;28;20649;-59
2023/10/17 09:07:56;;;;;;;5.03;1.50;;;16.40;58.70;;;;;;5026011;28;20623;-59
2023/10/17 09:10:41;;;;;;;8.00;1.50;;;16.40;59.20;;;;;;5023200;28;20200;-60
2023/10/17 09:15:59;;;;;;;2.87;1.30;;;16.50;58.40;;;;;;5019780;28;20212;-60
2023/10/17 09:18:29;;;;;;;3.00;1.47;;;16.60;58.30;;;;;;5026945;28;20207;-60
2023/10/17 09:20:57;;;;;;;2.23;1.33;;;16.70;58.20;;;;;;5027564;28;20199;-59
2023/10/17 09:23:29;;;;;;;2.87;1.20;;;16.80;58.40;;;;;;5018702;28;20307;-60
2023/10/17 09:26:17;;;;;;;8.33;1.70;;;16.90;58.30;;;;;;5025681;28;20195;-60
2023/10/17 09:28:45;;;;;;;3.93;1.57;;;17.10;58.10;;;;;;5007520;28;20280;-60
2023/10/17 09:31:13;;;;;;;2.50;1.00;;;17.30;56.90;;;;;;5024725;28;20660;-60
2023/10/17 09:33:49;;;;;;;1.37;1.00;;;17.40;56.80;;;;;;5022701;28;20285;-59
2023/10/17 09:36:20;;;;;;;2.40;1.20;;;17.50;56.70;;;;;;5026931;28;20516;-60
2023/10/17 09:38:47;;;;;;;2.73;1.00;;;17.70;56.30;;;;;;5022979;28;20214;-59
2023/10/17 09:41:19;;;;;;;6.37;1.93;;;17.80;56.10;;;;;;5024960;28;20212;-60
2023/10/17 09:43:51;;;;;;;2.87;1.30;;;18.00;55.70;;;;;;5023396;28;20295;-59
2023/10/17 09:46:23;;;;;;;1.97;1.20;;;18.20;55.50;;;;;;5020879;28;20228;-60
2023/10/17 09:48:59;;;;;;;1.13;0.90;;;18.30;54.70;;;;;;5026366;28;20701;-60
2023/10/17 09:51:33;;;;;;;2.40;1.07;;;18.40;54.30;;;;;;5023449;28;20199;-60
2023/10/17 09:54:04;;;;;;;1.53;1.30;;;18.50;54.30;;;;;;5024125;28;20274;-60
2023/10/17 09:56:40;;;;;;;3.93;1.60;;;18.70;54.50;;;;;;5021796;28;20197;-60
2023/10/17 09:59:29;;;;;;;6.20;3.00;;;18.80;53.90;;;;;;5028097;28;20205;-60
2023/10/17 10:01:58;;;;;;;7.50;3.97;;;19.00;53.90;;;;;;5022217;28;20743;-60
2023/10/17 10:04:25;;;;;;;3.40;3.07;;;19.00;53.90;;;;;;5024076;28;20227;-60
2023/10/17 10:07:18;;;;;;;2.73;1.50;;;19.10;54.20;;;;;;5024565;28;20198;-61
2023/10/17 10:09:46;;;;;;;3.83;1.67;;;19.30;53.10;;;;;;5023315;28;20520;-60
2023/10/17 10:12:14;;;;;;;4.23;1.90;;;19.40;53.40;;;;;;5023669;28;20233;-60
2023/10/17 10:14:49;;;;;;;3.10;1.70;;;19.40;52.90;;;;;;5019366;28;20245;-60
2023/10/17 10:17:17;;;;;;;2.47;1.37;;;19.50;52.90;;;;;;5022106;28;20290;-60
2023/10/17 10:19:46;;;;;;;10.80;1.70;;;19.60;53.30;;;;;;5023310;28;20508;-60
2023/10/17 10:22:15;;;;;;;5.47;1.37;;;19.60;53.40;;;;;;5021536;28;20254;-60
2023/10/17 10:24:45;;;;;;;2.37;1.20;;;19.70;53.50;;;;;;5027534;28;20213;-60
2023/10/17 10:27:24;;;;;;;1.80;1.13;;;19.80;53.20;;;;;;5018379;28;20209;-60
2023/10/17 10:30:29;;;;;;;3.07;1.40;;;19.90;52.90;;;;;;5023971;28;20532;-60
2023/10/17 10:32:59;;;;;;;2.73;1.20;;;20.00;53.20;;;;;;5023492;28;20305;-59
2023/10/17 10:35:26;;;;;;;2.37;1.40;;;20.00;53.10;;;;;;5026402;28;20289;-60
2023/10/17 10:37:56;;;;;;;1.90;1.17;;;20.00;53.10;;;;;;5025093;28;20211;-60
2023/10/17 10:40:25;;;;;;;4.97;1.60;;;20.10;53.50;;;;;;5025680;28;20294;-60
2023/10/17 10:42:59;;;;;;;2.67;1.17;;;20.30;53.50;;;;;;5026904;28;20214;-59
2023/10/17 10:45:42;;;;;;;4.33;1.67;;;20.40;52.60;;;;;;5023932;28;20280;-60
2023/10/17 10:48:15;;;;;;;3.37;1.70;;;20.50;52.40;;;;;;5025356;28;20207;-60
2023/10/17 10:50:48;;;;;;;5.43;1.30;;;20.50;52.50;;;;;;5023342;28;20208;-59
2023/10/17 10:53:39;;;;;;;1.80;1.10;;;20.60;52.60;;;;;;5023150;28;20268;-60
2023/10/17 10:56:09;;;;;;;3.30;1.93;;;20.70;52.40;;;;;;5021570;28;20292;-60
2023/10/17 10:58:47;;;;;;;2.77;1.53;;;20.70;52.60;;;;;;5020878;28;20656;-60
2023/10/17 11:01:15;;;;;;;3.07;1.70;;;20.70;51.60;;;;;;5023479;28;20256;-60
2023/10/17 11:03:44;;;;;;;2.73;1.33;;;20.60;52.30;;;;;;5023662;28;20280;-60
2023/10/17 11:06:12;;;;;;;4.53;1.37;;;20.60;53.00;;;;;;5024274;28;20641;-60
2023/10/17 11:08:45;;;;;;;2.47;1.50;;;20.70;53.70;;;;;;5024471;28;20289;-60
2023/10/17 11:11:16;;;;;;;2.20;1.40;;;20.80;53.60;;;;;;5019333;28;20199;-60
2023/10/17 11:13:48;;;;;;;3.10;1.17;;;20.90;53.40;;;;;;5023049;28;20237;-59
2023/10/17 11:16:19;;;;;;;1.40;1.30;;;21.10;53.10;;;;;;5020062;28;20213;-60
2023/10/17 11:18:47;;;;;;;3.30;1.20;;;21.20;52.80;;;;;;5019001;28;20207;-60
2023/10/17 11:21:20;;;;;;;4.23;1.43;;;21.20;52.60;;;;;;5025335;28;20296;-60
2023/10/17 11:23:54;;;;;;;3.40;1.57;;;21.20;52.80;;;;;;5020270;28;20297;-60
2023/10/17 11:26:27;;;;;;;4.73;1.50;;;21.40;52.60;;;;;;5024255;28;20214;-60
2023/10/17 11:28:56;;;;;;;3.27;1.30;;;21.30;52.40;;;;;;5024146;28;20241;-60
2023/10/17 11:31:25;;;;;;;2.50;1.53;;;21.30;52.50;;;;;;5025700;28;20549;-60
2023/10/17 11:34:03;;;;;;;3.77;1.60;;;21.30;52.80;;;;;;5025561;28;20218;-60
2023/10/17 11:36:36;;;;;;;3.67;1.53;;;21.30;52.90;;;;;;5022034;28;20199;-60
2023/10/17 11:39:05;;;;;;;6.73;1.70;;;21.20;53.20;;;;;;5028070;28;20206;-60
2023/10/17 11:41:47;;;;;;;6.90;1.37;;;21.20;53.40;;;;;;5028147;28;20602;-61
2023/10/17 11:44:15;;;;;;;3.13;1.53;;;21.20;53.30;;;;;;5023147;28;20210;-60
2023/10/17 11:46:55;;;;;;;8.03;1.57;;;21.20;53.20;;;;;;5025043;28;20210;-60
2023/10/17 11:49:32;;;;;;;3.83;2.37;;;21.10;53.30;;;;;;5023263;28;20229;-59
2023/10/17 11:52:09;;;;;;;4.27;1.63;;;21.10;53.70;;;;;;5026955;28;20192;-60
2023/10/17 11:54:58;;;;;;;2.33;1.30;;;21.00;54.00;;;;;;5029679;28;20278;-60
2023/10/17 11:57:25;;;;;;;2.70;1.23;;;20.90;54.20;;;;;;5029595;28;20609;-60
2023/10/17 11:59:57;;;;;;;5.43;2.00;;;20.80;54.60;;;;;;5025808;28;21017;-61
2023/10/17 12:02:25;;;;;;;1.07;1.00;;;21.00;54.70;;;;;;5028357;28;20281;-60
2023/10/17 12:04:53;;;;;;;4.43;1.30;;;21.10;54.00;;;;;;5028600;28;20192;-60
2023/10/17 12:07:23;;;;;;;2.73;1.10;;;21.20;54.20;;;;;;5025987;28;20207;-59
2023/10/17 12:09:53;;;;;;;4.87;1.27;;;21.20;54.00;;;;;;5026323;28;20207;-60
2023/10/17 12:12:26;;;;;;;3.10;1.10;;;21.20;54.10;;;;;;5028098;28;20636;-60
2023/10/17 12:14:53;;;;;;;2.03;1.10;;;21.10;53.60;;;;;;5026746;28;20601;-60
2023/10/17 12:17:23;;;;;;;1.27;0.87;;;21.00;54.00;;;;;;5027523;28;20198;-61
2023/10/17 12:19:52;;;;;;;4.50;1.20;;;21.00;54.10;;;;;;5028075;28;20280;-60
2023/10/17 12:22:25;;;;;;;1.30;1.03;;;20.90;54.30;;;;;;5025319;28;20253;-60
2023/10/17 12:24:52;;;;;;;3.37;0.93;;;20.80;54.60;;;;;;5026346;28;20195;-59
2023/10/17 12:27:20;;;;;;;1.60;1.00;;;20.80;54.50;;;;;;5027423;28;20536;-61
2023/10/17 12:29:47;;;;;;;2.97;1.17;;;20.80;54.60;;;;;;5027425;28;20596;-60
2023/10/17 12:32:17;;;;;;;4.60;1.20;;;20.90;55.50;;;;;;5026233;28;20219;-60
2023/10/17 12:34:46;;;;;;;2.37;1.00;;;21.00;55.30;;;;;;5025440;28;20207;-60
2023/10/17 12:37:13;;;;;;;2.37;1.40;;;21.20;55.90;;;;;;5025162;28;20203;-61
2023/10/17 12:39:44;;;;;;;2.33;1.20;;;21.30;55.30;;;;;;5027718;28;20636;-60
2023/10/17 12:42:11;;;;;;;3.23;1.33;;;21.40;55.30;;;;;;5023420;28;20543;-60
2023/10/17 12:44:38;;;;;;;4.87;0.87;;;21.30;53.50;;;;;;5025042;28;20547;-60
2023/10/17 12:47:05;;;;;;;5.53;1.30;;;21.20;53.30;;;;;;5023807;28;20290;-60
2023/10/17 12:49:37;;;;;;;3.30;1.00;;;21.00;53.60;;;;;;5021969;28;20195;-60
2023/10/17 12:52:06;;;;;;;3.37;1.27;;;21.00;54.00;;;;;;5025282;28;20228;-60
2023/10/17 12:54:33;;;;;;;3.13;1.30;;;20.90;53.80;;;;;;5024853;28;20188;-60
2023/10/17 12:57:06;;;;;;;6.83;1.50;;;20.80;54.20;;;;;;5024787;28;20640;-60
2023/10/17 12:59:34;;;;;;;4.40;1.40;;;20.70;53.90;;;;;;5022552;28;20556;-60
2023/10/17 13:02:01;;;;;;;3.47;1.03;;;20.70;54.40;;;;;;5028513;28;20556;-60
2023/10/17 13:04:31;;;;;;;1.93;0.97;;;20.60;54.20;;;;;;5018838;28;20243;-60
2023/10/17 13:07:03;;;;;;;10.47;1.70;;;20.50;54.60;;;;;;5019832;28;20205;-60
2023/10/17 13:09:32;;;;;;;9.03;1.57;;;20.50;55.10;;;;;;5027642;28;20217;-60
2023/10/17 13:12:01;;;;;;;3.30;1.70;;;20.40;55.30;;;;;;5021680;28;20206;-60
2023/10/17 13:14:28;;;;;;;3.70;1.50;;;20.40;55.70;;;;;;5025637;28;20250;-60
2023/10/17 13:16:58;;;;;;;3.20;1.57;;;20.30;55.60;;;;;;5021119;28;20209;-59
2023/10/17 13:19:25;;;;;;;6.87;1.47;;;20.30;55.10;;;;;;5025136;28;20656;-60
2023/10/17 13:21:56;;;;;;;2.20;1.37;;;20.20;55.20;;;;;;5028077;28;20296;-60
2023/10/17 13:24:25;;;;;;;4.37;1.27;;;20.20;55.50;;;;;;5020942;28;20583;-60
2023/10/17 13:26:55;;;;;;;4.17;1.00;;;20.20;56.40;;;;;;5023990;28;20199;-59
2023/10/17 13:29:36;;;;;;;3.53;1.93;;;20.10;56.60;;;;;;5026823;28;20611;-60
2023/10/17 13:32:07;;;;;;;4.77;1.37;;;20.10;56.70;;;;;;5009040;28;20269;-60
2023/10/17 13:34:37;;;;;;;5.07;1.20;;;20.00;56.20;;;;;;5024845;28;20210;-60
2023/10/17 13:37:04;;;;;;;5.60;1.60;;;20.00;56.40;;;;;;5028082;28;20206;-60
2023/10/17 13:39:32;;;;;;;5.03;1.40;;;20.00;56.30;;;;;;5023727;28;20199;-59
2023/10/17 13:42:04;;;;;;;1.67;1.20;;;20.00;56.10;;;;;;5020799;28;20300;-60
2023/10/17 13:44:31;;;;;;;4.67;1.90;;;20.00;56.50;;;;;;5023662;28;20204;-60
2023/10/17 13:46:58;;;;;;;3.57;1.57;;;19.90;57.00;;;;;;5022798;28;20221;-60
2023/10/17 13:49:27;;;;;;;5.87;1.50;;;20.00;57.40;;;;;;5007719;28;20225;-60
2023/10/17 13:51:55;;;;;;;2.93;1.40;;;19.90;57.20;;;;;;5023995;28;20199;-59
2023/10/17 13:54:23;;;;;;;6.90;1.27;;;19.90;57.50;;;;;;5020393;28;20222;-60
2023/10/17 13:56:52;;;;;;;2.53;1.80;;;19.80;57.90;;;;;;5020911;28;20211;-60
2023/10/17 13:59:19;;;;;;;5.77;1.97;;;19.90;58.30;;;;;;5025893;28;20697;-60
2023/10/17 14:01:47;;;;;;;6.47;1.83;;;19.90;58.60;;;;;;5021714;28;20522;-59
2023/10/17 14:04:15;;;;;;;2.20;1.10;;;19.90;58.30;;;;;;5021746;28;20238;-60
2023/10/17 14:06:42;;;;;;;1.93;1.40;;;19.90;58.20;;;;;;5023202;28;20269;-60
2023/10/17 14:09:17;;;;;;;6.67;1.20;;;19.90;57.10;;;;;;5007412;28;20189;-60
2023/10/17 14:11:48;;;;;;;1.30;1.17;;;19.90;57.20;;;;;;5022442;28;20280;-59
2023/10/17 14:14:18;;;;;;;4.97;1.30;;;19.90;58.00;;;;;;5017776;28;20239;-60
2023/10/17 14:16:50;;;;;;;11.73;2.00;;;19.90;58.10;;;;;;5020685;28;20220;-60
2023/10/17 14:19:28;;;;;;;2.43;1.47;;;19.80;58.20;;;;;;5028832;28;20233;-60
2023/10/17 14:22:10;;;;;;;2.97;1.40;;;19.90;58.40;;;;;;5023124;28;20209;-60
2023/10/17 14:27:32;;;;;;;6.10;1.70;;;19.90;58.40;;;;;;5026574;28;20196;-60
2023/10/17 14:30:01;;;;;;;5.83;1.93;;;19.90;58.50;;;;;;5021553;28;20204;-60
2023/10/17 14:32:28;;;;;;;5.57;1.63;;;20.00;58.70;;;;;;5022097;28;20195;-60
2023/10/17 14:34:56;;;;;;;3.17;1.43;;;20.00;58.80;;;;;;5024426;28;20209;-59
2023/10/17 14:37:24;;;;;;;7.53;1.67;;;20.00;59.00;;;;;;5024715;28;20216;-60
2023/10/17 14:39:54;;;;;;;3.83;1.70;;;20.00;59.00;;;;;;5020417;28;20243;-60
2023/10/17 14:42:21;;;;;;;2.07;1.20;;;20.00;58.90;;;;;;5024847;28;20648;-60
2023/10/17 14:44:52;;;;;;;2.07;1.40;;;20.00;59.00;;;;;;5024092;28;20230;-60
2023/10/17 14:47:19;;;;;;;2.27;1.63;;;19.90;58.90;;;;;;5024344;28;20221;-60
2023/10/17 14:49:48;;;;;;;2.40;1.27;;;19.90;58.90;;;;;;5020843;28;20703;-60
2023/10/17 14:52:18;;;;;;;2.37;2.03;;;19.90;58.90;;;;;;5019658;28;20218;-60
2023/10/17 14:54:49;;;;;;;8.80;1.87;;;19.90;58.70;;;;;;5020121;28;20215;-60
2023/10/17 14:57:20;;;;;;;3.37;1.43;;;19.80;58.80;;;;;;5024416;28;20198;-60
2023/10/17 14:59:50;;;;;;;3.80;1.70;;;19.80;58.80;;;;;;5023938;28;20265;-60
2023/10/17 15:02:19;;;;;;;3.30;1.87;;;19.70;58.40;;;;;;5024299;28;20220;-60
2023/10/17 15:04:46;;;;;;;4.70;1.60;;;19.60;58.30;;;;;;5019780;28;20222;-60
2023/10/17 15:07:13;;;;;;;6.03;1.83;;;19.60;58.40;;;;;;5023511;28;20198;-60
2023/10/17 15:09:43;;;;;;;8.57;2.43;;;19.50;58.50;;;;;;5029189;28;20228;-60
2023/10/17 15:12:10;;;;;;;5.10;1.50;;;19.50;58.40;;;;;;5027825;28;20263;-60
2023/10/17 15:14:40;;;;;;;5.70;1.50;;;19.40;58.70;;;;;;5031230;28;20693;-60
2023/10/17 15:17:07;;;;;;;3.73;1.70;;;19.40;58.60;;;;;;5030253;28;20197;-60
2023/10/17 15:19:35;;;;;;;4.70;1.67;;;19.30;58.10;;;;;;5027760;28;20279;-60
2023/10/17 15:22:03;;;;;;;7.93;1.57;;;19.30;58.60;;;;;;5026536;28;20678;-60
2023/10/17 15:24:30;;;;;;;5.40;1.70;;;19.20;58.90;;;;;;5026768;28;20623;-60
2023/10/17 15:26:58;;;;;;;5.43;1.70;;;19.20;59.00;;;;;;5030027;28;20575;-60